Time;durP1;ratioP1;P1;durP2;ratioP2;P2;SDS_P1;SDS_P2;PMS_P1;PMS_P2;Temp;Humidity;BMP_temperature;BMP_pressure;BME280_temperature;BME280_humidity;BME280_pressure;Samples;Min_cycle;Max_cycle;Signal;HPM_P1;HPM_P2
2022/03/30 00:01:32;;;;;;;13.05;2.20;;;;;;;11.90;34.28;100387.28;4834928;29;101028;-70
2022/03/30 00:04:00;;;;;;;21.17;2.35;;;;;;;11.55;34.53;100392.38;4835212;29;98940;-69
2022/03/30 00:06:26;;;;;;;15.40;2.60;;;;;;;11.27;36.39;100396.31;4832404;29;96833;-71
2022/03/30 00:08:53;;;;;;;9.38;2.65;;;;;;;11.23;37.72;100390.28;4831093;29;98521;-70
2022/03/30 00:11:19;;;;;;;12.85;4.32;;;;;;;11.14;37.35;100388.06;4834990;29;98937;-71
2022/03/30 00:13:49;;;;;;;12.27;1.90;;;;;;;11.15;37.20;100392.44;4832432;29;98895;-70
2022/03/30 00:16:15;;;;;;;13.93;2.13;;;;;;;11.23;36.19;100385.00;4832915;29;96906;-70
2022/03/30 00:18:42;;;;;;;12.23;2.28;;;;;;;11.12;37.27;100389.91;4829106;29;96917;-71
2022/03/30 00:21:10;;;;;;;13.18;2.33;;;;;;;11.11;37.31;100381.13;4834108;29;101797;-71
2022/03/30 00:23:36;;;;;;;9.45;2.20;;;;;;;11.10;37.77;100381.19;4832766;29;98798;-69
2022/03/30 00:26:03;;;;;;;19.35;2.92;;;;;;;11.22;37.17;100379.81;4829867;29;96795;-70
2022/03/30 00:28:29;;;;;;;18.13;2.60;;;;;;;10.94;38.13;100388.06;4832496;29;97006;-69
2022/03/30 00:30:57;;;;;;;16.90;2.75;;;;;;;10.88;38.39;100385.69;4831750;29;98880;-72
2022/03/30 00:33:24;;;;;;;14.80;2.70;;;;;;;10.72;38.26;100375.75;4834187;29;101192;-70
2022/03/30 00:35:50;;;;;;;16.08;2.92;;;;;;;10.77;37.97;100381.69;4832507;29;97426;-70
2022/03/30 00:38:18;;;;;;;14.95;3.50;;;;;;;11.01;37.37;100382.44;4828235;29;97282;-70
2022/03/30 00:40:45;;;;;;;11.18;2.33;;;;;;;11.32;37.41;100378.47;4831245;29;98957;-69
2022/03/30 00:43:12;;;;;;;19.40;2.72;;;;;;;10.96;37.84;100386.22;4834070;29;101891;-70
2022/03/30 00:45:39;;;;;;;11.13;2.05;;;;;;;10.65;36.88;100382.22;4834625;29;97540;-70
2022/03/30 00:48:06;;;;;;;16.08;2.45;;;;;;;11.07;36.15;100381.31;4831514;29;97493;-70
2022/03/30 00:50:32;;;;;;;12.38;2.42;;;;;;;11.13;36.72;100386.34;4830158;29;99059;-70
2022/03/30 00:52:59;;;;;;;19.88;3.00;;;;;;;10.92;37.39;100379.31;4833195;29;98847;-69
2022/03/30 00:55:27;;;;;;;15.07;2.58;;;;;;;11.03;37.85;100380.56;4830594;29;97332;-72
2022/03/30 00:57:55;;;;;;;16.38;2.22;;;;;;;10.93;37.89;100381.91;4830895;29;97251;-70
2022/03/30 01:00:22;;;;;;;14.52;2.70;;;;;;;10.71;38.04;100379.31;4829140;29;97898;-71
2022/03/30 01:02:50;;;;;;;17.23;2.25;;;;;;;10.83;37.10;100374.44;4833914;29;99148;-69
2022/03/30 01:05:18;;;;;;;13.05;3.35;;;;;;;10.52;37.43;100374.84;4832208;29;98664;-68
2022/03/30 01:07:45;;;;;;;10.02;2.03;;;;;;;10.85;36.63;100375.22;4833826;29;97280;-69
2022/03/30 01:10:13;;;;;;;10.52;2.55;;;;;;;10.37;38.17;100365.78;4833041;29;99554;-69
2022/03/30 01:12:42;;;;;;;17.10;2.70;;;;;;;10.35;37.32;100363.19;4831661;29;98695;-70
2022/03/30 01:15:10;;;;;;;12.48;2.30;;;;;;;10.41;38.21;100369.16;4831441;29;96853;-70
2022/03/30 01:17:38;;;;;;;14.00;2.10;;;;;;;10.31;38.71;100364.22;4833948;29;97230;-71
2022/03/30 01:20:06;;;;;;;8.60;2.03;;;;;;;10.29;38.14;100367.88;4833368;29;98259;-69
2022/03/30 01:22:34;;;;;;;20.25;2.60;;;;;;;10.63;37.32;100360.25;4831078;29;97864;-69
2022/03/30 01:25:01;;;;;;;14.77;2.33;;;;;;;10.45;38.75;100361.03;4831718;29;96861;-69
2022/03/30 01:27:27;;;;;;;10.90;2.05;;;;;;;10.52;37.59;100361.63;4833297;29;97394;-69
2022/03/30 01:32:40;;;;;;;12.35;2.78;;;;;;;10.65;37.29;100355.78;4832075;29;98653;-70
2022/03/30 01:35:07;;;;;;;16.65;3.05;;;;;;;10.68;37.47;100360.94;4831677;29;97711;-69
2022/03/30 01:37:35;;;;;;;19.67;2.83;;;;;;;10.91;36.78;100353.81;4833124;29;96974;-69
2022/03/30 01:40:05;;;;;;;21.60;4.00;;;;;;;10.82;36.96;100343.66;4829595;29;101067;-70
2022/03/30 01:42:32;;;;;;;20.10;3.25;;;;;;;10.96;36.41;100347.41;4831122;29;98949;-69
2022/03/30 01:45:01;;;;;;;16.17;2.55;;;;;;;11.17;36.02;100343.81;4832425;29;97235;-69
2022/03/30 01:47:28;;;;;;;16.50;2.83;;;;;;;11.10;36.06;100336.22;4830888;29;98365;-69
2022/03/30 01:49:55;;;;;;;7.63;2.33;;;;;;;11.09;36.36;100338.00;4831718;29;99001;-69
2022/03/30 01:52:22;;;;;;;19.70;3.20;;;;;;;11.30;36.11;100340.63;4826737;29;99294;-69
2022/03/30 01:54:50;;;;;;;16.63;2.90;;;;;;;11.02;36.14;100330.44;4828375;29;97139;-69
2022/03/30 01:57:16;;;;;;;15.95;2.42;;;;;;;10.89;36.55;100334.53;4830450;29;97459;-69
2022/03/30 01:59:44;;;;;;;9.18;2.70;;;;;;;11.10;36.14;100333.56;4831816;29;101915;-69
2022/03/30 02:02:12;;;;;;;13.20;2.42;;;;;;;11.04;36.09;100333.84;4831499;29;97830;-69
2022/03/30 02:04:38;;;;;;;18.52;2.78;;;;;;;10.85;36.54;100336.44;4828042;29;97132;-69
2022/03/30 02:07:09;;;;;;;20.35;2.65;;;;;;;10.64;37.00;100332.06;4831852;29;97673;-70
2022/03/30 02:09:35;;;;;;;11.02;2.33;;;;;;;10.52;37.35;100324.66;4830980;29;98932;-70
2022/03/30 02:12:04;;;;;;;12.27;4.00;;;;;;;10.55;37.07;100332.47;4833890;29;97775;-70
2022/03/30 02:14:30;;;;;;;9.77;2.60;;;;;;;10.88;36.79;100324.88;4831405;29;97274;-70
2022/03/30 02:16:57;;;;;;;16.90;2.83;;;;;;;11.09;36.17;100319.50;4831760;29;97257;-71
2022/03/30 02:19:23;;;;;;;11.85;2.38;;;;;;;10.99;36.29;100314.69;4829440;29;99634;-70
2022/03/30 02:21:50;;;;;;;16.95;2.75;;;;;;;10.90;36.36;100323.88;4833119;29;100462;-70
2022/03/30 02:24:16;;;;;;;22.65;2.42;;;;;;;11.06;36.64;100318.78;4830802;29;97613;-70
2022/03/30 02:26:42;;;;;;;17.13;2.90;;;;;;;10.75;37.01;100316.63;4831699;29;97513;-70
2022/03/30 02:29:10;;;;;;;10.15;2.15;;;;;;;10.81;37.97;100318.16;4830762;29;98679;-71
2022/03/30 02:31:37;;;;;;;14.20;3.00;;;;;;;10.61;37.94;100319.00;4832548;29;99158;-71
2022/03/30 02:34:03;;;;;;;13.48;2.50;;;;;;;10.43;38.01;100318.00;4830746;29;96824;-69
2022/03/30 02:36:30;;;;;;;16.17;2.65;;;;;;;10.81;37.34;100311.06;4829659;29;96916;-71
2022/03/30 02:38:56;;;;;;;19.35;2.63;;;;;;;10.62;37.81;100321.56;4827462;29;98947;-70
2022/03/30 02:41:23;;;;;;;14.57;2.55;;;;;;;10.63;37.57;100317.16;4832026;29;98905;-71
2022/03/30 02:43:50;;;;;;;14.68;2.60;;;;;;;10.25;38.21;100324.00;4829950;29;96816;-74
2022/03/30 02:46:18;;;;;;;11.98;2.50;;;;;;;10.30;38.28;100327.34;4826733;29;97804;-70
2022/03/30 02:48:44;;;;;;;16.35;2.95;;;;;;;10.44;38.36;100324.09;4829687;29;99303;-71
2022/03/30 02:51:11;;;;;;;20.23;2.53;;;;;;;10.87;37.34;100324.03;4830897;29;99549;-71
2022/03/30 02:53:38;;;;;;;12.18;2.47;;;;;;;10.76;37.47;100316.53;4831907;29;96879;-71
2022/03/30 02:56:05;;;;;;;18.27;2.90;;;;;;;10.77;37.53;100326.19;4831812;29;96946;-71
2022/03/30 02:58:32;;;;;;;17.13;2.65;;;;;;;10.59;37.27;100331.41;4830092;29;99188;-71
2022/03/30 03:00:59;;;;;;;14.70;2.83;;;;;;;9.93;38.57;100323.50;4835835;29;98196;-73
2022/03/30 03:03:27;;;;;;;20.17;3.38;;;;;;;9.41;39.47;100316.72;4833549;29;96799;-70
2022/03/30 03:05:53;;;;;;;21.60;3.00;;;;;;;9.28;40.39;100323.38;4833439;29;96843;-70
2022/03/30 03:08:20;;;;;;;18.05;4.28;;;;;;;9.46;39.97;100319.19;4833317;29;101733;-71
2022/03/30 03:10:50;;;;;;;12.45;2.90;;;;;;;9.92;38.90;100319.13;4833735;29;100322;-70
2022/03/30 03:13:17;;;;;;;20.23;3.13;;;;;;;9.79;39.10;100317.03;4834236;29;96880;-70
2022/03/30 03:15:45;;;;;;;16.75;2.53;;;;;;;9.99;38.66;100320.59;4836648;29;96849;-69
2022/03/30 03:18:12;;;;;;;18.65;3.15;;;;;;;9.96;38.64;100317.25;4833963;29;98908;-70
2022/03/30 03:20:43;;;;;;;19.15;3.25;;;;;;;10.11;38.47;100313.13;4834589;29;101478;-70
2022/03/30 03:23:10;;;;;;;13.90;2.65;;;;;;;10.39;38.18;100308.47;4830923;29;98513;-70
2022/03/30 03:25:37;;;;;;;17.90;2.92;;;;;;;10.44;37.74;100306.47;4832205;29;97367;-70
2022/03/30 03:28:05;;;;;;;16.48;3.15;;;;;;;10.20;38.26;100304.84;4830673;29;99058;-70
2022/03/30 03:30:32;;;;;;;14.63;2.72;;;;;;;10.23;38.83;100304.75;4835214;29;100083;-71
2022/03/30 03:33:01;;;;;;;13.70;2.63;;;;;;;10.38;38.20;100298.81;4834096;29;96785;-69
2022/03/30 03:35:28;;;;;;;12.80;2.55;;;;;;;10.34;38.26;100305.16;4826048;29;96925;-70
2022/03/30 03:37:56;;;;;;;15.25;2.55;;;;;;;10.29;38.92;100299.22;4829382;29;99587;-71
2022/03/30 03:40:23;;;;;;;16.25;2.75;;;;;;;10.18;38.54;100304.91;4831031;29;99679;-70
2022/03/30 03:42:49;;;;;;;15.18;2.83;;;;;;;10.05;38.79;100300.16;4837585;29;96823;-71
2022/03/30 03:45:18;;;;;;;21.75;2.75;;;;;;;9.62;40.05;100308.91;4834772;29;97026;-71
2022/03/30 03:47:46;;;;;;;8.93;2.58;;;;;;;9.40;40.65;100306.22;4834369;29;99868;-71
2022/03/30 03:50:14;;;;;;;19.25;2.65;;;;;;;9.42;40.81;100304.41;4833547;29;104901;-71
2022/03/30 03:52:41;;;;;;;14.73;2.65;;;;;;;9.73;39.97;100304.94;4833696;29;96916;-71
2022/03/30 03:55:11;;;;;;;17.50;2.88;;;;;;;9.55;40.05;100305.66;4830351;29;96976;-72
2022/03/30 03:57:38;;;;;;;20.65;3.15;;;;;;;9.17;40.99;100309.72;4832352;29;99404;-71
2022/03/30 04:00:07;;;;;;;23.65;3.20;;;;;;;8.56;42.18;100314.50;4834117;29;98798;-71
2022/03/30 04:02:34;;;;;;;12.35;2.55;;;;;;;8.96;41.83;100314.00;4832763;29;97758;-70
2022/03/30 04:05:01;;;;;;;11.75;2.70;;;;;;;9.25;40.88;100317.38;4832186;29;97126;-71
2022/03/30 04:07:28;;;;;;;16.88;2.42;;;;;;;9.21;40.94;100316.59;4834459;29;99371;-72
2022/03/30 04:09:55;;;;;;;15.75;3.08;;;;;;;9.24;41.04;100311.22;4834323;29;101043;-72
2022/03/30 04:12:25;;;;;;;15.23;2.72;;;;;;;9.22;41.25;100307.78;4835521;29;97629;-71
2022/03/30 04:14:54;;;;;;;14.82;2.83;;;;;;;9.42;40.89;100313.16;4834795;29;98824;-73
2022/03/30 04:17:21;;;;;;;16.35;3.15;;;;;;;9.70;39.95;100310.34;4830962;29;99907;-72
2022/03/30 04:19:48;;;;;;;14.20;2.38;;;;;;;10.08;39.19;100303.56;4836463;29;101692;-74
2022/03/30 04:22:17;;;;;;;21.70;3.10;;;;;;;10.02;39.27;100313.50;4834840;29;96840;-75
2022/03/30 04:24:43;;;;;;;16.40;3.15;;;;;;;10.03;39.40;100307.31;4832856;29;97474;-72
2022/03/30 04:27:11;;;;;;;8.13;2.47;;;;;;;9.74;39.94;100306.66;4830171;29;99086;-71
2022/03/30 04:29:43;;;;;;;12.02;3.28;;;;;;;9.53;40.51;100295.16;4834316;29;97543;-73
2022/03/30 04:32:11;;;;;;;22.90;4.40;;;;;;;9.60;40.55;100298.41;4834216;29;96936;-72
2022/03/30 04:34:38;;;;;;;19.15;2.85;;;;;;;9.59;40.58;100297.56;4830816;29;96986;-71
2022/03/30 04:37:04;;;;;;;19.20;3.10;;;;;;;9.41;41.23;100285.06;4830892;29;98125;-72
2022/03/30 04:39:31;;;;;;;19.90;3.60;;;;;;;9.12;41.40;100291.41;4833296;29;98911;-70
2022/03/30 04:41:58;;;;;;;19.58;3.15;;;;;;;8.80;42.47;100294.34;4832107;29;96833;-71
2022/03/30 04:44:25;;;;;;;17.70;3.70;;;;;;;9.13;41.83;100289.66;4831310;29;96808;-72
2022/03/30 04:46:54;;;;;;;20.65;3.58;;;;;;;9.31;41.26;100291.63;4826532;29;99079;-70
2022/03/30 04:49:21;;;;;;;19.08;3.33;;;;;;;9.35;41.17;100297.63;4833031;29;97538;-71
2022/03/30 04:51:48;;;;;;;16.90;3.30;;;;;;;9.48;41.25;100288.34;4832915;29;98354;-72
2022/03/30 04:54:15;;;;;;;21.35;3.08;;;;;;;9.77;40.36;100296.00;4830242;29;97083;-71
2022/03/30 04:56:42;;;;;;;14.57;3.35;;;;;;;9.59;41.08;100299.31;4832369;29;99341;-71
2022/03/30 04:59:08;;;;;;;20.77;3.75;;;;;;;9.38;41.15;100292.25;4832612;29;99207;-72
2022/03/30 05:01:35;;;;;;;27.38;5.05;;;;;;;9.17;41.75;100294.78;4833510;29;97823;-72
2022/03/30 05:04:03;;;;;;;24.85;5.07;;;;;;;9.48;41.10;100290.97;4835901;29;96759;-70
2022/03/30 05:06:30;;;;;;;21.02;4.07;;;;;;;9.46;41.06;100296.31;4829512;29;98060;-70
2022/03/30 05:08:56;;;;;;;18.30;3.55;;;;;;;9.16;41.56;100293.03;4834231;29;98959;-69
2022/03/30 05:11:24;;;;;;;18.67;4.35;;;;;;;9.39;41.09;100291.31;4833689;29;96888;-70
2022/03/30 05:13:51;;;;;;;27.70;4.05;;;;;;;9.50;41.25;100291.78;4832321;29;97052;-70
2022/03/30 05:16:17;;;;;;;21.52;3.95;;;;;;;9.48;41.22;100291.84;4829700;29;98996;-71
2022/03/30 05:18:44;;;;;;;15.68;3.40;;;;;;;9.50;41.21;100291.78;4833043;29;98999;-71
2022/03/30 05:21:11;;;;;;;18.83;3.90;;;;;;;9.50;40.92;100297.06;4833075;29;97900;-70
2022/03/30 05:23:38;;;;;;;20.17;3.95;;;;;;;9.80;40.64;100295.00;4831439;29;97924;-71
2022/03/30 05:26:13;;;;;;;16.70;3.47;;;;;;;10.02;40.20;100295.03;4830615;29;97643;-71
2022/03/30 05:28:40;;;;;;;20.83;3.53;;;;;;;10.39;39.36;100300.53;4830999;29;98164;-71
2022/03/30 05:31:07;;;;;;;20.33;4.03;;;;;;;10.41;39.46;100297.84;4830397;29;98934;-70
2022/03/30 05:33:35;;;;;;;17.90;3.15;;;;;;;10.64;38.88;100297.72;4832979;29;97733;-71
2022/03/30 05:36:01;;;;;;;18.17;3.67;;;;;;;10.64;38.60;100295.06;4828396;29;99005;-70
2022/03/30 05:38:29;;;;;;;23.45;3.85;;;;;;;10.63;38.99;100301.31;4829283;29;97690;-71
2022/03/30 05:40:56;;;;;;;19.23;3.30;;;;;;;10.22;39.59;100298.59;4832358;29;96915;-70
2022/03/30 05:43:25;;;;;;;24.80;3.10;;;;;;;10.61;39.19;100296.06;4829563;29;96941;-71
2022/03/30 05:45:52;;;;;;;30.70;3.30;;;;;;;10.71;38.81;100304.44;4832141;29;100845;-70
2022/03/30 05:48:18;;;;;;;19.65;3.60;;;;;;;10.62;39.06;100297.81;4831751;29;98861;-70
2022/03/30 05:50:45;;;;;;;18.92;3.40;;;;;;;10.81;38.54;100294.34;4833934;29;96939;-70
2022/03/30 05:53:13;;;;;;;22.85;3.67;;;;;;;10.81;38.55;100294.34;4830377;29;96950;-71
2022/03/30 05:55:41;;;;;;;23.20;4.15;;;;;;;10.54;38.98;100291.97;4833757;29;99652;-70
2022/03/30 05:58:07;;;;;;;17.08;3.25;;;;;;;10.42;39.38;100292.50;4828331;29;99648;-69
2022/03/30 06:00:35;;;;;;;21.10;4.45;;;;;;;10.75;38.70;100293.72;4831616;29;98934;-71
2022/03/30 06:03:02;;;;;;;27.67;3.42;;;;;;;10.98;38.24;100283.88;4832545;29;97100;-71
2022/03/30 06:05:28;;;;;;;36.15;5.43;;;;;;;10.64;38.45;100293.28;4831433;29;98144;-71
2022/03/30 06:07:57;;;;;;;18.00;4.15;;;;;;;11.02;38.34;100285.50;4831707;29;98896;-71
2022/03/30 06:10:25;;;;;;;18.90;3.15;;;;;;;10.75;38.45;100283.13;4833516;29;96920;-70
2022/03/30 06:12:53;;;;;;;16.80;3.13;;;;;;;10.34;39.32;100286.66;4830018;29;97595;-71
2022/03/30 06:15:20;;;;;;;18.35;2.72;;;;;;;10.10;39.56;100285.00;4833375;29;101678;-71
2022/03/30 06:17:48;;;;;;;15.38;3.17;;;;;;;9.68;40.61;100291.06;4830830;29;97578;-71
2022/03/30 06:20:15;;;;;;;22.70;3.15;;;;;;;10.04;40.20;100280.00;4828053;29;96848;-70
2022/03/30 06:22:43;;;;;;;17.75;2.72;;;;;;;10.27;39.58;100291.34;4832347;29;96860;-70
2022/03/30 06:25:10;;;;;;;23.77;4.63;;;;;;;9.89;40.48;100290.22;4826007;29;98818;-71
2022/03/30 06:27:38;;;;;;;16.48;3.22;;;;;;;10.48;39.41;100280.81;4829102;29;102905;-70
2022/03/30 06:30:08;;;;;;;20.90;4.35;;;;;;;10.92;38.53;100274.44;4829979;29;97151;-71
2022/03/30 06:32:35;;;;;;;21.70;3.75;;;;;;;10.86;38.40;100279.16;4825884;29;96925;-72
2022/03/30 06:35:03;;;;;;;26.60;3.97;;;;;;;11.27;37.67;100277.31;4824934;29;99003;-72
2022/03/30 06:37:29;;;;;;;16.00;3.80;;;;;;;10.82;38.74;100277.56;4833700;29;100216;-71
2022/03/30 06:39:56;;;;;;;14.82;2.83;;;;;;;10.50;39.31;100276.31;4827297;29;97936;-71
2022/03/30 06:42:22;;;;;;;22.83;2.90;;;;;;;10.94;38.53;100272.59;4830849;29;97139;-71
2022/03/30 06:44:50;;;;;;;14.07;3.10;;;;;;;10.88;38.07;100266.72;4834752;29;98178;-70
2022/03/30 06:50:32;;;;;;;30.25;3.35;;;;;;;10.77;39.03;100260.13;4831650;29;97256;-71
2022/03/30 06:53:00;;;;;;;20.63;3.78;;;;;;;11.40;37.61;100266.09;4829547;29;98838;-70
2022/03/30 06:55:27;;;;;;;15.02;3.13;;;;;;;11.56;37.13;100264.44;4827585;29;98652;-71
2022/03/30 06:57:53;;;;;;;17.92;3.42;;;;;;;11.82;36.64;100262.34;4832170;29;99404;-72
2022/03/30 07:00:20;;;;;;;19.83;3.15;;;;;;;10.85;38.52;100258.94;4829323;29;96869;-72
2022/03/30 07:02:52;;;;;;;13.38;2.60;;;;;;;11.08;38.09;100266.72;4829691;29;97030;-71
2022/03/30 07:05:19;;;;;;;18.88;3.10;;;;;;;11.71;37.22;100248.75;4830063;29;99226;-70
2022/03/30 07:10:31;;;;;;;11.65;2.60;;;;;;;11.69;36.76;100258.56;4831501;29;97170;-70
2022/03/30 07:12:58;;;;;;;24.30;3.53;;;;;;;12.10;35.70;100252.16;4826748;29;98651;-70
2022/03/30 07:15:25;;;;;;;13.65;2.60;;;;;;;12.34;35.44;100250.91;4823507;29;98574;-69
2022/03/30 07:17:55;;;;;;;14.55;2.92;;;;;;;12.63;34.85;100254.75;4827450;29;98646;-70
2022/03/30 07:20:23;;;;;;;16.88;2.92;;;;;;;12.59;34.67;100255.00;4827274;29;98927;-69
2022/03/30 07:22:51;;;;;;;18.65;3.70;;;;;;;12.43;35.21;100248.75;4831465;29;98173;-69
2022/03/30 07:25:25;;;;;;;19.85;3.45;;;;;;;12.78;34.56;100242.50;4824046;29;100865;-70
2022/03/30 07:27:53;;;;;;;18.33;3.35;;;;;;;12.67;34.82;100242.16;4827273;29;99118;-70
2022/03/30 07:30:21;;;;;;;19.88;3.53;;;;;;;13.09;34.07;100237.25;4829504;29;97397;-70
2022/03/30 07:32:50;;;;;;;15.77;3.25;;;;;;;12.99;34.17;100241.38;4828993;29;97307;-70
2022/03/30 07:35:21;;;;;;;15.43;3.17;;;;;;;12.41;35.15;100251.47;4827174;29;100789;-68
2022/03/30 07:37:49;;;;;;;45.17;4.00;;;;;;;12.92;34.65;100249.72;4831276;29;98794;-70
2022/03/30 07:40:21;;;;;;;26.95;4.00;;;;;;;12.95;34.26;100247.75;4826893;29;97340;-69
2022/03/30 07:42:50;;;;;;;27.15;5.22;;;;;;;12.77;34.73;100249.59;4828426;29;97866;-70
2022/03/30 07:45:17;;;;;;;21.52;3.55;;;;;;;12.46;35.18;100253.91;4826227;29;102122;-71
2022/03/30 07:47:43;;;;;;;15.02;3.35;;;;;;;12.60;35.02;100246.09;4829258;29;101758;-72
2022/03/30 07:50:11;;;;;;;18.63;3.60;;;;;;;12.17;35.76;100253.56;4828923;29;97509;-70
2022/03/30 07:52:40;;;;;;;15.82;2.90;;;;;;;12.08;35.75;100247.88;4830314;29;98465;-70
2022/03/30 07:55:11;;;;;;;20.38;2.90;;;;;;;12.18;35.39;100252.63;4828728;29;99420;-70
2022/03/30 07:57:42;;;;;;;15.60;3.10;;;;;;;12.80;34.04;100245.91;4826303;29;99258;-69
2022/03/30 08:00:11;;;;;;;25.08;3.53;;;;;;;12.73;34.32;100247.19;4828672;29;98173;-70
2022/03/30 08:02:45;;;;;;;16.98;2.92;;;;;;;13.08;33.69;100242.63;4820754;29;99010;-71
2022/03/30 08:05:13;;;;;;;19.55;3.30;;;;;;;12.71;33.98;100246.41;4825253;29;97943;-69
2022/03/30 08:07:43;;;;;;;16.77;2.95;;;;;;;12.39;34.34;100248.06;4832306;29;100866;-69
2022/03/30 08:10:10;;;;;;;26.20;3.63;;;;;;;12.38;34.26;100244.53;4829292;29;97456;-70
2022/03/30 08:12:40;;;;;;;21.65;3.65;;;;;;;12.89;33.69;100247.22;4833170;29;97087;-69
2022/03/30 08:15:09;;;;;;;30.42;4.15;;;;;;;12.68;33.77;100249.19;4833257;29;98683;-71
2022/03/30 08:17:37;;;;;;;16.48;3.38;;;;;;;12.62;34.29;100245.06;4831519;29;101959;-69
2022/03/30 08:20:05;;;;;;;20.05;3.55;;;;;;;12.95;33.84;100241.59;4825658;29;98134;-71
2022/03/30 08:22:31;;;;;;;18.63;3.13;;;;;;;12.17;34.11;100245.63;4833425;29;97054;-70
2022/03/30 08:25:00;;;;;;;;;;;;;;;12.56;33.52;100247.19;4827307;29;99595;-70
2022/03/30 08:27:29;;;;;;;16.65;3.63;;;;;;;13.02;32.71;100242.97;4827501;29;99277;-70
2022/03/30 08:29:56;;;;;;;15.00;2.38;;;;;;;13.44;31.77;100243.34;4832122;29;96899;-70
2022/03/30 08:32:24;;;;;;;13.90;2.58;;;;;;;13.77;31.18;100232.66;4833814;29;96896;-70
2022/03/30 08:34:53;;;;;;;14.10;2.60;;;;;;;14.02;30.85;100244.50;4829453;29;99046;-70
2022/03/30 08:37:20;;;;;;;14.40;2.83;;;;;;;14.49;29.93;100241.78;4831360;29;98170;-69
2022/03/30 08:39:48;;;;;;;25.00;3.55;;;;;;;14.36;30.07;100247.78;4826533;29;97138;-69
2022/03/30 08:42:17;;;;;;;16.33;3.22;;;;;;;14.18;29.99;100235.56;4826205;29;98606;-71
2022/03/30 08:44:46;;;;;;;10.38;2.97;;;;;;;14.37;29.46;100238.00;4824819;29;102109;-70
2022/03/30 08:47:13;;;;;;;20.05;2.80;;;;;;;14.53;29.21;100237.97;4826803;29;99716;-71
2022/03/30 08:49:42;;;;;;;11.65;2.80;;;;;;;14.82;28.79;100237.09;4826862;29;97450;-72
2022/03/30 08:52:10;;;;;;;19.33;3.17;;;;;;;14.40;29.58;100242.31;4828062;29;99467;-71
2022/03/30 08:54:41;;;;;;;20.75;2.80;;;;;;;14.10;30.22;100250.25;4830646;29;101632;-71
2022/03/30 08:57:08;;;;;;;13.02;2.42;;;;;;;13.69;31.08;100240.19;4832480;29;97608;-72
2022/03/30 08:59:36;;;;;;;14.32;2.53;;;;;;;14.55;29.40;100238.75;4828680;29;97840;-71
2022/03/30 09:02:06;;;;;;;15.73;2.45;;;;;;;14.62;29.16;100238.28;4830422;29;97849;-73
2022/03/30 09:04:33;;;;;;;14.20;2.60;;;;;;;15.09;28.05;100237.19;4829014;29;98251;-72
2022/03/30 09:07:03;;;;;;;11.38;2.17;;;;;;;13.68;28.63;100238.47;4831461;29;98832;-73
2022/03/30 09:09:32;;;;;;;7.85;1.90;;;;;;;13.41;28.91;100237.34;4831175;29;96923;-71
2022/03/30 09:12:00;;;;;;;11.18;2.20;;;;;;;13.21;29.46;100238.44;4838898;29;96814;-71
2022/03/30 09:14:29;;;;;;;10.63;2.47;;;;;;;14.13;27.26;100232.31;4838498;29;99146;-72
2022/03/30 09:17:00;;;;;;;7.95;1.58;;;;;;;14.77;25.98;100225.84;4831433;29;98615;-71
2022/03/30 09:19:30;;;;;;;14.07;2.53;;;;;;;15.07;25.24;100223.13;4831052;29;97121;-72
2022/03/30 09:21:59;;;;;;;10.75;1.85;;;;;;;14.76;26.14;100226.81;4835662;29;98249;-74
2022/03/30 09:24:28;;;;;;;10.27;1.98;;;;;;;14.89;25.84;100218.94;4833839;29;99754;-72
2022/03/30 09:26:57;;;;;;;7.65;2.03;;;;;;;15.01;25.66;100226.16;4835075;29;96971;-71
2022/03/30 09:29:27;;;;;;;10.45;2.38;;;;;;;15.04;25.21;100221.50;4832635;29;96768;-72
2022/03/30 09:31:54;;;;;;;11.10;2.10;;;;;;;14.17;26.37;100225.03;4836079;29;96962;-73
2022/03/30 09:34:22;;;;;;;13.25;1.80;;;;;;;13.50;27.78;100218.25;4831342;29;99253;-72
2022/03/30 09:36:52;;;;;;;12.65;2.40;;;;;;;14.51;26.73;100211.47;4833148;29;99033;-71
2022/03/30 09:39:30;;;;;;;15.63;2.50;;;;;;;13.57;28.22;100220.50;4826423;29;97658;-72
2022/03/30 09:41:58;;;;;;;10.85;2.10;;;;;;;14.11;27.90;100214.78;4834466;29;97841;-71
2022/03/30 09:44:26;;;;;;;16.08;2.60;;;;;;;13.71;28.33;100219.72;4833571;29;98931;-72
2022/03/30 09:46:58;;;;;;;14.13;3.00;;;;;;;13.71;28.28;100211.75;4833036;29;101544;-71
2022/03/30 09:49:34;;;;;;;10.75;2.55;;;;;;;13.34;28.48;100217.38;4831850;29;97419;-71
2022/03/30 09:52:02;;;;;;;17.27;2.38;;;;;;;13.49;28.35;100217.41;4831217;29;97009;-71
2022/03/30 09:54:38;;;;;;;12.70;2.03;;;;;;;14.37;27.46;100208.78;4827198;29;99198;-72
2022/03/30 09:57:10;;;;;;;11.77;2.58;;;;;;;13.47;28.73;100211.31;4828311;29;99134;-72
2022/03/30 10:00:03;;;;;;;16.08;2.75;;;;;;;13.57;28.86;100203.72;4827228;29;97692;-72
2022/03/30 10:02:31;;;;;;;12.70;2.50;;;;;;;14.44;27.74;100207.47;4830168;29;96805;-72
2022/03/30 10:05:04;;;;;;;13.90;2.60;;;;;;;15.36;26.49;100198.19;4830754;29;96953;-71
2022/03/30 10:07:31;;;;;;;13.20;2.17;;;;;;;14.97;26.46;100195.38;4830211;29;99614;-72
2022/03/30 10:10:00;;;;;;;16.48;2.20;;;;;;;15.20;26.56;100199.25;4829651;29;98173;-70
2022/03/30 10:12:27;;;;;;;16.58;1.92;;;;;;;15.02;26.34;100198.63;4832031;29;97859;-69
2022/03/30 10:14:55;;;;;;;9.23;1.70;;;;;;;15.24;26.07;100190.13;4831430;29;98226;-70
2022/03/30 10:17:24;;;;;;;11.70;2.42;;;;;;;15.00;26.20;100193.38;4832885;29;101871;-70
2022/03/30 10:19:52;;;;;;;20.70;2.83;;;;;;;15.27;26.34;100187.28;4829971;29;96833;-71
2022/03/30 10:22:46;;;;;;;11.43;2.25;;;;;;;14.85;26.65;100188.16;4833972;29;98112;-71
2022/03/30 10:25:33;;;;;;;16.60;2.70;;;;;;;14.92;26.76;100195.66;4831145;29;99036;-70
2022/03/30 10:28:15;;;;;;;13.80;1.92;;;;;;;15.73;25.57;100188.72;4826095;29;98149;-71
2022/03/30 10:30:43;;;;;;;11.02;2.47;;;;;;;15.62;25.78;100180.56;4826485;29;97080;-71
2022/03/30 10:33:12;;;;;;;12.73;2.25;;;;;;;15.27;25.98;100177.50;4831651;29;96958;-70
2022/03/30 10:35:40;;;;;;;12.73;2.33;;;;;;;14.10;27.69;100181.16;4832106;29;98733;-70
2022/03/30 10:38:09;;;;;;;12.80;1.90;;;;;;;13.93;28.16;100182.13;4830023;29;99303;-72
2022/03/30 10:40:37;;;;;;;7.00;2.03;;;;;;;14.07;28.16;100178.69;4826935;29;98894;-69
2022/03/30 10:43:06;;;;;;;8.73;2.17;;;;;;;15.00;26.88;100172.09;4831137;29;97613;-69
2022/03/30 10:45:40;;;;;;;11.40;2.72;;;;;;;15.57;26.14;100173.81;4830985;29;99423;-70
2022/03/30 10:48:13;;;;;;;15.35;2.92;;;;;;;15.74;25.59;100171.78;4831451;29;99933;-72
2022/03/30 10:50:43;;;;;;;9.55;2.05;;;;;;;15.97;25.46;100161.41;4829667;29;97271;-69
2022/03/30 10:53:38;;;;;;;12.40;2.20;;;;;;;14.91;26.74;100164.69;4828973;29;98871;-71
2022/03/30 10:56:28;;;;;;;12.77;2.05;;;;;;;15.28;26.40;100160.56;4828632;29;100661;-70
2022/03/30 10:59:09;;;;;;;13.30;1.83;;;;;;;15.40;25.83;100157.13;4828371;29;98317;-71
2022/03/30 11:01:38;;;;;;;11.05;2.72;;;;;;;15.73;25.74;100158.56;4832575;29;97370;-70
2022/03/30 11:04:16;;;;;;;11.63;2.00;;;;;;;16.00;25.33;100158.53;4829221;29;98005;-70
2022/03/30 11:06:47;;;;;;;8.32;2.03;;;;;;;16.24;24.94;100149.72;4827288;29;97926;-72
2022/03/30 11:09:28;;;;;;;12.63;2.30;;;;;;;16.94;23.89;100162.66;4827300;29;98877;-71
2022/03/30 11:12:00;;;;;;;11.82;2.28;;;;;;;16.29;24.33;100152.94;4826356;29;97387;-71
2022/03/30 11:14:31;;;;;;;9.32;2.20;;;;;;;16.38;24.58;100159.47;4829723;29;96889;-72
2022/03/30 11:17:00;;;;;;;11.60;2.65;;;;;;;16.45;24.05;100165.22;4828096;29;99549;-72
2022/03/30 11:19:30;;;;;;;10.05;2.10;;;;;;;17.05;23.68;100150.28;4820988;29;99166;-71
2022/03/30 11:22:09;;;;;;;10.25;2.50;;;;;;;16.98;23.92;100159.69;4833932;29;98359;-71
2022/03/30 11:24:37;;;;;;;9.05;2.15;;;;;;;15.36;25.49;100155.59;4832577;29;96944;-71
2022/03/30 11:27:22;;;;;;;11.13;2.58;;;;;;;14.58;27.12;100143.69;4834436;29;99432;-71
2022/03/30 11:30:10;;;;;;;10.05;2.28;;;;;;;15.94;25.59;100149.16;4829889;29;99593;-70
2022/03/30 11:32:42;;;;;;;21.73;3.03;;;;;;;16.19;25.03;100149.19;4829088;29;97080;-72
2022/03/30 11:35:11;;;;;;;21.02;3.47;;;;;;;15.06;26.14;100141.59;4832327;29;97220;-72